sensor_id;sensor_type;location;lat;lon;timestamp;pressure;altitude;pressure_sealevel;temperature;humidity
67818;BME280;54614;47.576;7.524;2023-05-21T18:08:51;97958.59;;;22.65;46.20
67818;BME280;54614;47.576;7.524;2023-05-21T18:11:17;97952.97;;;22.73;46.16
67818;BME280;54614;47.576;7.524;2023-05-21T18:13:44;97958.13;;;22.81;47.64
67818;BME280;54614;47.576;7.524;2023-05-21T18:16:10;97964.66;;;22.92;47.17
67818;BME280;54614;47.576;7.524;2023-05-21T18:18:36;97964.34;;;23.07;46.40
67818;BME280;54614;47.576;7.524;2023-05-21T18:21:02;97966.38;;;23.11;46.44
67818;BME280;54614;47.576;7.524;2023-05-21T18:23:28;97975.59;;;23.22;45.90
67818;BME280;54614;47.576;7.524;2023-05-21T18:25:56;97973.91;;;23.28;46.10
67818;BME280;54614;47.576;7.524;2023-05-21T18:28:21;97973.91;;;23.28;46.10
67818;BME280;54614;47.576;7.524;2023-05-21T18:30:47;97973.38;;;23.44;45.46
67818;BME280;54614;47.576;7.524;2023-05-21T18:33:13;97977.47;;;23.46;45.23
67818;BME280;54614;47.576;7.524;2023-05-21T18:35:42;97973.09;;;23.52;45.43
67818;BME280;54614;47.576;7.524;2023-05-21T18:38:10;97967.03;;;23.63;45.46
67818;BME280;54614;47.576;7.524;2023-05-21T18:40:36;97974.38;;;23.74;44.82
67818;BME280;54614;47.576;7.524;2023-05-21T18:43:03;97974.25;;;24.06;44.19
67818;BME280;54614;47.576;7.524;2023-05-21T18:45:31;97982.16;;;24.01;44.62
67818;BME280;54614;47.576;7.524;2023-05-21T18:47:58;97979.72;;;23.99;44.85
67818;BME280;54614;47.576;7.524;2023-05-21T18:50:24;97985.81;;;23.88;45.60
67818;BME280;54614;47.576;7.524;2023-05-21T18:52:50;97984.78;;;23.89;45.54
67818;BME280;54614;47.576;7.524;2023-05-21T18:55:22;97989.16;;;23.84;45.49
67818;BME280;54614;47.576;7.524;2023-05-21T18:57:49;97991.84;;;23.84;45.68
67818;BME280;54614;47.576;7.524;2023-05-21T19:00:15;97995.28;;;23.91;45.45
67818;BME280;54614;47.576;7.524;2023-05-21T19:02:42;97992.97;;;23.94;45.00
67818;BME280;54614;47.576;7.524;2023-05-21T19:05:09;97998.56;;;23.93;45.33
67818;BME280;54614;47.576;7.524;2023-05-21T19:07:35;98002.84;;;24.00;45.21
67818;BME280;54614;47.576;7.524;2023-05-21T19:10:02;98004.25;;;24.03;45.11
67818;BME280;54614;47.576;7.524;2023-05-21T19:12:29;98005.09;;;24.03;45.25
67818;BME280;54614;47.576;7.524;2023-05-21T19:14:56;98009.66;;;24.21;44.72
67818;BME280;54614;47.576;7.524;2023-05-21T19:17:23;98009.94;;;24.13;44.91
67818;BME280;54614;47.576;7.524;2023-05-21T19:19:50;98022.34;;;24.14;45.06
67818;BME280;54614;47.576;7.524;2023-05-21T19:22:22;98015.91;;;24.15;44.79
67818;BME280;54614;47.576;7.524;2023-05-21T19:24:49;98024.13;;;24.20;44.38
67818;BME280;54614;47.576;7.524;2023-05-21T19:27:14;98011.97;;;24.18;44.45
67818;BME280;54614;47.576;7.524;2023-05-21T19:29:41;98022.22;;;24.27;44.51
67818;BME280;54614;47.576;7.524;2023-05-21T19:32:07;98022.84;;;24.29;44.41
67818;BME280;54614;47.576;7.524;2023-05-21T19:34:35;98033.66;;;24.41;44.41
67818;BME280;54614;47.576;7.524;2023-05-21T19:37:01;98037.69;;;24.50;43.89
67818;BME280;54614;47.576;7.524;2023-05-21T19:39:35;98036.09;;;24.79;43.21
67818;BME280;54614;47.576;7.524;2023-05-21T19:42:02;98044.19;;;24.61;43.26
67818;BME280;54614;47.576;7.524;2023-05-21T19:44:28;98050.47;;;24.55;43.09
67818;BME280;54614;47.576;7.524;2023-05-21T19:46:53;98046.34;;;24.52;43.02
67818;BME280;54614;47.576;7.524;2023-05-21T19:49:20;98055.69;;;24.50;42.86
67818;BME280;54614;47.576;7.524;2023-05-21T19:51:46;98060.69;;;24.46;43.15
67818;BME280;54614;47.576;7.524;2023-05-21T19:54:12;98070.78;;;24.51;42.96
67818;BME280;54614;47.576;7.524;2023-05-21T19:56:38;98078.91;;;24.44;43.07
67818;BME280;54614;47.576;7.524;2023-05-21T19:59:03;98073.53;;;24.44;43.03
67818;BME280;54614;47.576;7.524;2023-05-21T20:01:29;98074.13;;;24.46;43.02
67818;BME280;54614;47.576;7.524;2023-05-21T20:03:58;98086.97;;;24.44;43.10
67818;BME280;54614;47.576;7.524;2023-05-21T20:06:25;98086.16;;;24.43;43.00
67818;BME280;54614;47.576;7.524;2023-05-21T20:08:51;98083.91;;;24.40;42.68
67818;BME280;54614;47.576;7.524;2023-05-21T20:11:18;98093.63;;;24.41;42.86
67818;BME280;54614;47.576;7.524;2023-05-21T20:13:44;98096.53;;;24.40;42.94
67818;BME280;54614;47.576;7.524;2023-05-21T20:16:15;98102.78;;;24.34;43.07
67818;BME280;54614;47.576;7.524;2023-05-21T20:18:43;98100.47;;;24.37;42.60
67818;BME280;54614;47.576;7.524;2023-05-21T20:21:15;98104.81;;;24.38;42.61
67818;BME280;54614;47.576;7.524;2023-05-21T20:23:46;98104.66;;;24.33;42.71
67818;BME280;54614;47.576;7.524;2023-05-21T20:26:14;98109.06;;;24.28;42.94
67818;BME280;54614;47.576;7.524;2023-05-21T20:28:40;98115.84;;;24.30;42.90
67818;BME280;54614;47.576;7.524;2023-05-21T20:31:06;98113.38;;;24.29;42.75
67818;BME280;54614;47.576;7.524;2023-05-21T20:33:33;98117.94;;;24.28;42.72
67818;BME280;54614;47.576;7.524;2023-05-21T20:35:59;98118.97;;;24.27;42.91
67818;BME280;54614;47.576;7.524;2023-05-21T20:38:26;98120.03;;;24.26;42.77
67818;BME280;54614;47.576;7.524;2023-05-21T20:40:54;98122.72;;;24.26;43.04
67818;BME280;54614;47.576;7.524;2023-05-21T20:43:20;98127.06;;;24.27;42.96
67818;BME280;54614;47.576;7.524;2023-05-21T20:45:46;98134.09;;;24.22;43.13
67818;BME280;54614;47.576;7.524;2023-05-21T20:48:15;98132.66;;;24.19;43.16
67818;BME280;54614;47.576;7.524;2023-05-21T20:50:44;98127.69;;;24.23;43.02
67818;BME280;54614;47.576;7.524;2023-05-21T20:53:10;98129.72;;;24.27;43.09
67818;BME280;54614;47.576;7.524;2023-05-21T20:55:37;98127.91;;;24.21;42.96
67818;BME280;54614;47.576;7.524;2023-05-21T20:58:03;98133.28;;;24.21;42.62
67818;BME280;54614;47.576;7.524;2023-05-21T21:00:32;98139.31;;;24.17;42.98
67818;BME280;54614;47.576;7.524;2023-05-21T21:02:58;98131.03;;;24.18;43.19
67818;BME280;54614;47.576;7.524;2023-05-21T21:05:26;98131.03;;;24.18;43.14
67818;BME280;54614;47.576;7.524;2023-05-21T21:07:53;98135.75;;;24.23;42.99
67818;BME280;54614;47.576;7.524;2023-05-21T21:10:19;98135.75;;;24.23;43.09
67818;BME280;54614;47.576;7.524;2023-05-21T21:12:46;98139.69;;;24.20;43.07
67818;BME280;54614;47.576;7.524;2023-05-21T21:15:12;98146.72;;;24.21;43.00
67818;BME280;54614;47.576;7.524;2023-05-21T21:17:38;98140.28;;;24.22;42.80
67818;BME280;54614;47.576;7.524;2023-05-21T21:20:05;98136.56;;;24.23;42.99
67818;BME280;54614;47.576;7.524;2023-05-21T21:22:32;98139.91;;;24.19;42.99
67818;BME280;54614;47.576;7.524;2023-05-21T21:24:58;98142.03;;;24.10;43.38
67818;BME280;54614;47.576;7.524;2023-05-21T21:27:24;98142.75;;;24.24;43.03
67818;BME280;54614;47.576;7.524;2023-05-21T21:29:50;98141.94;;;24.23;43.20
67818;BME280;54614;47.576;7.524;2023-05-21T21:32:17;98142.81;;;24.17;42.90
67818;BME280;54614;47.576;7.524;2023-05-21T21:34:43;98145.06;;;24.20;42.90
67818;BME280;54614;47.576;7.524;2023-05-21T21:37:09;98146.09;;;24.19;43.13
67818;BME280;54614;47.576;7.524;2023-05-21T21:39:35;98148.34;;;24.22;42.99
67818;BME280;54614;47.576;7.524;2023-05-21T21:42:01;98145.28;;;24.19;42.90
67818;BME280;54614;47.576;7.524;2023-05-21T21:44:27;98145.94;;;24.14;43.25
67818;BME280;54614;47.576;7.524;2023-05-21T21:46:53;98148.56;;;24.27;42.59
67818;BME280;54614;47.576;7.524;2023-05-21T21:49:19;98146.91;;;24.26;43.02
67818;BME280;54614;47.576;7.524;2023-05-21T21:51:45;98153.28;;;24.25;43.03
67818;BME280;54614;47.576;7.524;2023-05-21T21:54:11;98152.88;;;24.28;42.97
67818;BME280;54614;47.576;7.524;2023-05-21T21:56:37;98152.28;;;24.26;42.89
67818;BME280;54614;47.576;7.524;2023-05-21T21:59:02;98152.53;;;24.18;43.08
67818;BME280;54614;47.576;7.524;2023-05-21T22:01:28;98160.41;;;24.13;43.19
67818;BME280;54614;47.576;7.524;2023-05-21T22:03:54;98154.13;;;24.26;42.84
67818;BME280;54614;47.576;7.524;2023-05-21T22:06:21;98156.78;;;24.32;42.79
67818;BME280;54614;47.576;7.524;2023-05-21T22:08:47;98163.34;;;24.36;42.64
67818;BME280;54614;47.576;7.524;2023-05-21T22:11:13;98167.34;;;24.27;42.87
67818;BME280;54614;47.576;7.524;2023-05-21T22:13:39;98156.38;;;24.29;43.02
67818;BME280;54614;47.576;7.524;2023-05-21T22:16:09;98161.53;;;24.30;42.97
67818;BME280;54614;47.576;7.524;2023-05-21T22:18:37;98166.72;;;24.25;42.82
67818;BME280;54614;47.576;7.524;2023-05-21T22:21:07;98176.47;;;24.26;42.85
67818;BME280;54614;47.576;7.524;2023-05-21T22:23:35;98178.72;;;24.29;42.80
67818;BME280;54614;47.576;7.524;2023-05-21T22:26:01;98178.44;;;24.37;42.92
67818;BME280;54614;47.576;7.524;2023-05-21T22:28:28;98177.28;;;24.27;43.19
67818;BME280;54614;47.576;7.524;2023-05-21T22:30:54;98175.59;;;24.32;42.85
67818;BME280;54614;47.576;7.524;2023-05-21T22:33:20;98178.38;;;24.44;42.60
67818;BME280;54614;47.576;7.524;2023-05-21T22:35:46;98179.34;;;24.25;42.89
67818;BME280;54614;47.576;7.524;2023-05-21T22:38:12;98188.22;;;24.25;42.97
67818;BME280;54614;47.576;7.524;2023-05-21T22:40:38;98185.47;;;24.38;42.89
67818;BME280;54614;47.576;7.524;2023-05-21T22:43:05;98178.50;;;24.31;42.79
67818;BME280;54614;47.576;7.524;2023-05-21T22:45:31;98186.94;;;24.34;43.12
67818;BME280;54614;47.576;7.524;2023-05-21T22:47:57;98199.44;;;24.47;42.81
67818;BME280;54614;47.576;7.524;2023-05-21T22:50:32;98196.66;;;24.35;42.79
67818;BME280;54614;47.576;7.524;2023-05-21T22:52:58;98204.13;;;24.33;43.07
67818;BME280;54614;47.576;7.524;2023-05-21T22:55:25;98193.69;;;24.43;42.62
67818;BME280;54614;47.576;7.524;2023-05-21T22:57:51;98197.91;;;24.33;42.84
67818;BME280;54614;47.576;7.524;2023-05-21T23:00:17;98194.06;;;24.47;42.57
67818;BME280;54614;47.576;7.524;2023-05-21T23:02:47;98191.94;;;24.31;43.18
67818;BME280;54614;47.576;7.524;2023-05-21T23:05:13;98193.81;;;24.30;43.08
67818;BME280;54614;47.576;7.524;2023-05-21T23:07:39;98185.06;;;24.35;42.87
67818;BME280;54614;47.576;7.524;2023-05-21T23:10:07;98184.47;;;24.33;43.05
67818;BME280;54614;47.576;7.524;2023-05-21T23:12:33;98188.22;;;24.25;43.35
67818;BME280;54614;47.576;7.524;2023-05-21T23:14:59;98192.75;;;24.31;43.12
67818;BME280;54614;47.576;7.524;2023-05-21T23:17:25;98184.41;;;24.39;42.86
67818;BME280;54614;47.576;7.524;2023-05-21T23:19:51;98186.66;;;24.42;42.87
67818;BME280;54614;47.576;7.524;2023-05-21T23:22:20;98187.16;;;24.33;42.98
67818;BME280;54614;47.576;7.524;2023-05-21T23:24:46;98187.78;;;24.35;43.25
67818;BME280;54614;47.576;7.524;2023-05-21T23:27:14;98195.88;;;24.28;43.19
67818;BME280;54614;47.576;7.524;2023-05-21T23:29:39;98192.38;;;24.21;43.11
67818;BME280;54614;47.576;7.524;2023-05-21T23:32:06;98198.56;;;24.28;42.99
67818;BME280;54614;47.576;7.524;2023-05-21T23:34:32;98191.06;;;24.37;42.96
67818;BME280;54614;47.576;7.524;2023-05-21T23:36:58;98193.53;;;24.38;43.13
67818;BME280;54614;47.576;7.524;2023-05-21T23:39:24;98199.13;;;24.37;43.00
67818;BME280;54614;47.576;7.524;2023-05-21T23:41:51;98195.66;;;24.30;42.97
67818;BME280;54614;47.576;7.524;2023-05-21T23:44:17;98195.59;;;24.36;43.24
67818;BME280;54614;47.576;7.524;2023-05-21T23:46:44;98198.25;;;24.43;42.71
67818;BME280;54614;47.576;7.524;2023-05-21T23:49:10;98204.56;;;24.30;43.21
67818;BME280;54614;47.576;7.524;2023-05-21T23:51:37;98197.09;;;24.32;43.13
67818;BME280;54614;47.576;7.524;2023-05-21T23:54:03;98196.22;;;24.38;42.94
67818;BME280;54614;47.576;7.524;2023-05-21T23:56:29;98196.66;;;24.35;42.98
67818;BME280;54614;47.576;7.524;2023-05-21T23:58:55;98194.19;;;24.34;43.04
